createdAt,value
2022-10-27T00:00:25.627Z,82.10
2022-10-27T00:02:52.501Z,82.18
2022-10-27T00:05:19.248Z,82.11
2022-10-27T00:07:45.789Z,81.99
2022-10-27T00:10:12.367Z,81.91
2022-10-27T00:12:38.926Z,81.99
2022-10-27T00:15:05.732Z,81.82
2022-10-27T00:17:32.471Z,81.92
2022-10-27T00:19:59.090Z,81.90
2022-10-27T00:22:25.742Z,81.91
2022-10-27T00:24:52.368Z,81.85
2022-10-27T00:27:20.975Z,81.88
2022-10-27T00:29:47.592Z,82.00
2022-10-27T00:32:14.291Z,81.83
2022-10-27T00:34:40.849Z,81.97
2022-10-27T00:37:07.419Z,82.00
2022-10-27T00:39:34.003Z,82.13
2022-10-27T00:42:00.582Z,82.02
2022-10-27T00:44:36.303Z,82.00
2022-10-27T00:47:21.689Z,82.08
2022-10-27T00:50:10.600Z,82.02
2022-10-27T00:52:40.752Z,82.04
2022-10-27T00:55:11.140Z,81.75
2022-10-27T00:57:39.385Z,82.04
2022-10-27T01:00:06.818Z,81.87
2022-10-27T01:02:34.007Z,81.84
2022-10-27T01:05:00.593Z,81.71
2022-10-27T01:07:28.313Z,81.78
2022-10-27T01:09:54.869Z,81.69
2022-10-27T01:14:49.038Z,81.68
2022-10-27T01:17:34.550Z,81.70
2022-10-27T01:20:01.139Z,81.59
2022-10-27T01:22:30.692Z,81.48
2022-10-27T01:25:00.135Z,81.68
2022-10-27T01:27:41.691Z,81.63
2022-10-27T01:30:09.818Z,81.55
2022-10-27T01:33:02.298Z,81.43
2022-10-27T01:35:36.763Z,81.65
2022-10-27T01:38:06.049Z,81.43
2022-10-27T01:40:35.872Z,81.62
2022-10-27T01:43:05.723Z,81.49
2022-10-27T01:45:35.434Z,81.76
2022-10-27T01:48:02.893Z,81.59
2022-10-27T01:50:45.226Z,81.81
2022-10-27T01:53:20.852Z,81.60
2022-10-27T01:56:22.700Z,81.67
2022-10-27T01:59:01.080Z,81.65
2022-10-27T02:01:33.476Z,81.50
2022-10-27T02:04:01.398Z,81.69
2022-10-27T02:06:35.377Z,81.53
2022-10-27T02:09:01.968Z,81.68
2022-10-27T02:11:30.408Z,81.78
2022-10-27T02:13:59.053Z,81.69
2022-10-27T02:16:28.419Z,81.77
2022-10-27T02:19:08.172Z,81.72
2022-10-27T02:21:37.310Z,81.87
2022-10-27T02:24:04.977Z,81.75
2022-10-27T02:26:36.720Z,81.56
2022-10-27T02:29:13.984Z,81.70
2022-10-27T02:31:43.508Z,81.80
2022-10-27T02:34:11.028Z,81.75
2022-10-27T02:36:37.849Z,81.81
2022-10-27T02:39:04.458Z,81.63
2022-10-27T02:41:31.126Z,81.60
2022-10-27T02:43:57.669Z,81.74
2022-10-27T02:46:24.344Z,81.75
2022-10-27T02:48:51.010Z,81.72
2022-10-27T02:51:17.580Z,81.68
2022-10-27T02:53:44.235Z,81.83
2022-10-27T02:56:10.849Z,81.80
2022-10-27T02:58:37.451Z,81.70
2022-10-27T03:01:04.198Z,81.89
2022-10-27T03:03:30.847Z,81.70
2022-10-27T03:05:57.401Z,81.57
2022-10-27T03:08:24.017Z,81.38
2022-10-27T03:10:50.590Z,81.51
2022-10-27T03:13:17.238Z,81.71
2022-10-27T03:15:47.025Z,81.67
2022-10-27T03:18:13.844Z,81.52
2022-10-27T03:20:40.444Z,81.63
2022-10-27T03:23:07.181Z,81.62
2022-10-27T03:25:33.808Z,81.52
2022-10-27T03:28:00.358Z,81.70
2022-10-27T03:30:26.940Z,81.75
2022-10-27T03:32:53.965Z,81.69
2022-10-27T03:35:20.826Z,81.77
2022-10-27T03:37:54.452Z,81.82
2022-10-27T03:40:21.037Z,81.82
2022-10-27T03:42:47.661Z,82.06
2022-10-27T03:45:14.353Z,81.98
2022-10-27T03:47:40.941Z,81.98
2022-10-27T03:50:07.727Z,81.90
2022-10-27T03:52:34.275Z,81.97
2022-10-27T03:55:01.124Z,81.82
2022-10-27T03:57:27.681Z,81.99
2022-10-27T03:59:54.288Z,82.15
2022-10-27T04:02:21.063Z,82.44
2022-10-27T04:04:47.793Z,82.47
2022-10-27T04:07:14.378Z,82.55
2022-10-27T04:09:41.023Z,82.30
2022-10-27T04:12:07.778Z,82.44
2022-10-27T04:14:34.401Z,82.41
2022-10-27T04:17:00.962Z,82.36
2022-10-27T04:19:27.701Z,82.21
2022-10-27T04:21:54.540Z,82.19
2022-10-27T04:24:21.071Z,82.68
2022-10-27T04:26:48.637Z,82.75
2022-10-27T04:29:15.267Z,82.33
2022-10-27T04:31:41.814Z,82.59
2022-10-27T04:34:08.436Z,82.73
2022-10-27T04:36:34.972Z,82.30
2022-10-27T04:39:01.641Z,82.47
2022-10-27T04:41:28.250Z,82.23
2022-10-27T04:43:54.779Z,82.19
2022-10-27T04:46:21.455Z,82.53
2022-10-27T04:48:48.054Z,83.50
2022-10-27T04:51:18.035Z,84.00
2022-10-27T04:53:47.321Z,83.71
2022-10-27T04:56:13.981Z,84.23
2022-10-27T04:58:40.704Z,84.46
2022-10-27T05:01:11.136Z,85.05
2022-10-27T05:03:38.112Z,84.15
2022-10-27T05:06:04.822Z,84.02
2022-10-27T05:08:31.412Z,84.01
2022-10-27T05:10:58.005Z,84.34
2022-10-27T05:13:24.747Z,84.18
2022-10-27T05:15:51.286Z,83.87
2022-10-27T05:18:18.529Z,83.54
2022-10-27T05:20:45.435Z,83.95
2022-10-27T05:23:12.088Z,83.60
2022-10-27T05:25:38.720Z,83.31
2022-10-27T05:28:06.684Z,83.19
2022-10-27T05:30:33.412Z,83.31
2022-10-27T05:33:00.307Z,83.43
2022-10-27T05:35:26.960Z,83.44
2022-10-27T05:37:53.766Z,83.92
2022-10-27T05:40:20.545Z,84.02
2022-10-27T05:42:51.813Z,83.48
2022-10-27T05:45:19.072Z,83.80
2022-10-27T05:47:45.990Z,83.86
2022-10-27T05:50:13.093Z,83.77
2022-10-27T05:52:39.643Z,84.07
2022-10-27T05:55:06.560Z,83.91
2022-10-27T05:57:33.134Z,83.75
2022-10-27T05:59:59.681Z,83.72
2022-10-27T06:02:26.274Z,83.76
2022-10-27T06:04:53.016Z,83.88
2022-10-27T06:09:51.003Z,84.23
2022-10-27T06:12:17.671Z,84.24
2022-10-27T06:14:44.600Z,84.25
2022-10-27T06:17:11.107Z,84.44
2022-10-27T06:19:37.660Z,84.44
2022-10-27T06:22:04.240Z,84.54
2022-10-27T06:24:30.829Z,84.64
2022-10-27T06:26:57.386Z,84.63
2022-10-27T06:29:23.961Z,84.56
2022-10-27T06:31:50.605Z,84.90
2022-10-27T06:34:17.167Z,84.67
2022-10-27T06:36:43.758Z,84.56
2022-10-27T06:39:10.523Z,84.52
2022-10-27T06:41:37.104Z,84.78
2022-10-27T06:44:03.736Z,84.71
2022-10-27T06:46:30.440Z,85.08
2022-10-27T06:48:57.311Z,84.71
2022-10-27T06:51:23.901Z,84.63
2022-10-27T06:53:50.456Z,84.63
2022-10-27T06:56:19.124Z,84.71
2022-10-27T06:58:53.161Z,84.70
2022-10-27T07:01:20.940Z,84.78
2022-10-27T07:03:47.656Z,84.73
2022-10-27T07:06:14.314Z,84.49
2022-10-27T07:08:40.885Z,84.52
2022-10-27T07:11:07.784Z,84.58
2022-10-27T07:13:34.347Z,84.78
2022-10-27T07:16:00.932Z,84.74
2022-10-27T07:18:27.547Z,84.62
2022-10-27T07:20:54.432Z,84.69
2022-10-27T07:23:21.067Z,84.86
2022-10-27T07:25:50.932Z,84.92
2022-10-27T07:28:18.073Z,85.04
2022-10-27T07:30:45.015Z,84.81
2022-10-27T07:33:12.131Z,84.88
2022-10-27T07:35:38.701Z,84.70
2022-10-27T07:38:05.500Z,84.65
2022-10-27T07:40:33.398Z,84.89
2022-10-27T07:43:06.972Z,84.83
2022-10-27T07:45:36.624Z,84.76
2022-10-27T07:48:03.567Z,84.70
2022-10-27T07:50:34.192Z,84.69
2022-10-27T07:53:01.384Z,84.42
2022-10-27T07:55:29.092Z,84.34
2022-10-27T07:57:59.672Z,84.22
2022-10-27T08:00:26.978Z,84.11
2022-10-27T08:02:53.813Z,84.01
2022-10-27T08:05:20.790Z,83.85
2022-10-27T08:07:47.443Z,83.64
2022-10-27T08:10:14.063Z,83.58
2022-10-27T08:12:44.076Z,83.56
2022-10-27T08:15:11.692Z,83.58
2022-10-27T08:17:39.119Z,83.70
2022-10-27T08:20:07.005Z,83.42
2022-10-27T08:22:33.600Z,83.29
2022-10-27T08:25:01.153Z,83.45
2022-10-27T08:27:32.218Z,83.35
2022-10-27T08:29:58.781Z,83.26
2022-10-27T08:32:25.511Z,83.06
2022-10-27T08:34:52.152Z,83.07
2022-10-27T08:37:18.810Z,83.08
2022-10-27T08:39:45.360Z,82.93
2022-10-27T08:42:14.945Z,82.88
2022-10-27T08:44:47.860Z,82.62
2022-10-27T08:47:24.448Z,82.46
2022-10-27T08:50:11.271Z,82.13
2022-10-27T08:52:59.818Z,82.51
2022-10-27T08:55:30.125Z,82.31
2022-10-27T08:57:59.763Z,82.40
2022-10-27T09:00:27.649Z,82.40
2022-10-27T09:03:00.538Z,82.23
2022-10-27T09:05:27.056Z,82.14
2022-10-27T09:07:56.663Z,81.92
2022-10-27T09:10:43.590Z,81.67
2022-10-27T09:13:22.232Z,81.38
2022-10-27T09:15:50.757Z,81.46
2022-10-27T09:18:33.241Z,81.33
2022-10-27T09:21:02.447Z,81.30
2022-10-27T09:23:34.370Z,81.27
2022-10-27T09:26:00.949Z,81.04
2022-10-27T09:28:47.529Z,80.87
2022-10-27T09:31:19.018Z,81.06
2022-10-27T09:33:50.441Z,81.09
2022-10-27T09:36:20.144Z,81.24
2022-10-27T09:38:46.791Z,80.97
2022-10-27T09:41:13.346Z,81.23
2022-10-27T09:43:40.069Z,81.03
2022-10-27T09:46:10.544Z,80.90
2022-10-27T09:48:37.633Z,80.99
2022-10-27T09:51:13.529Z,80.89
2022-10-27T09:53:44.816Z,80.79
2022-10-27T09:56:15.105Z,80.69
2022-10-27T09:58:49.628Z,80.70
2022-10-27T10:01:16.778Z,80.60
2022-10-27T10:03:52.807Z,80.66
2022-10-27T10:06:31.285Z,80.54
2022-10-27T10:09:15.381Z,80.57
2022-10-27T10:11:42.022Z,80.54
2022-10-27T10:14:15.560Z,80.65
2022-10-27T10:16:44.873Z,80.59
2022-10-27T10:19:23.058Z,80.34
2022-10-27T10:21:49.641Z,80.20
2022-10-27T10:24:17.775Z,80.25
2022-10-27T10:26:52.395Z,80.06
2022-10-27T10:29:27.457Z,79.81
2022-10-27T10:32:06.281Z,79.79
2022-10-27T10:34:33.326Z,79.89
2022-10-27T10:37:00.646Z,80.15
2022-10-27T10:39:28.606Z,80.27
2022-10-27T10:42:10.515Z,79.15
2022-10-27T10:44:37.574Z,79.36
2022-10-27T10:47:04.500Z,79.68
2022-10-27T10:49:32.617Z,79.17
2022-10-27T10:52:00.685Z,79.53
2022-10-27T10:54:27.325Z,79.60
2022-10-27T10:56:54.936Z,79.98
2022-10-27T10:59:24.578Z,79.72
2022-10-27T11:02:17.547Z,79.37
2022-10-27T11:04:47.494Z,79.10
2022-10-27T11:07:33.431Z,79.05
2022-10-27T11:10:00.581Z,78.93
2022-10-27T11:12:29.706Z,78.86
2022-10-27T11:14:58.742Z,78.76
2022-10-27T11:17:25.982Z,78.46
2022-10-27T11:19:56.873Z,78.09
2022-10-27T11:22:26.096Z,78.19
2022-10-27T11:24:59.276Z,78.27
2022-10-27T11:27:29.615Z,79.40
2022-10-27T11:30:06.803Z,79.47
2022-10-27T11:32:42.698Z,79.32
2022-10-27T11:35:31.858Z,79.13
2022-10-27T11:38:16.955Z,78.97
2022-10-27T11:40:56.676Z,78.93
2022-10-27T11:43:23.289Z,78.93
2022-10-27T11:45:57.973Z,78.84
2022-10-27T11:48:34.082Z,78.73
2022-10-27T11:51:15.906Z,78.59
2022-10-27T11:53:42.839Z,76.78
2022-10-27T11:56:35.710Z,78.30
2022-10-27T11:59:14.290Z,77.99
2022-10-27T12:01:57.159Z,77.07
2022-10-27T12:04:26.955Z,78.24
2022-10-27T12:07:13.867Z,78.34
2022-10-27T12:09:58.014Z,78.51
2022-10-27T12:12:37.141Z,78.63
2022-10-27T12:15:22.119Z,78.28
2022-10-27T12:17:52.569Z,77.77
2022-10-27T12:20:24.611Z,78.03
2022-10-27T12:23:03.903Z,78.34
2022-10-27T12:25:33.895Z,78.28
2022-10-27T12:28:01.941Z,78.50
2022-10-27T12:30:28.928Z,78.32
2022-10-27T12:33:01.310Z,78.14
2022-10-27T12:35:45.537Z,77.90
2022-10-27T12:38:12.151Z,78.50
2022-10-27T12:40:44.746Z,78.49
2022-10-27T12:43:11.422Z,78.56
2022-10-27T12:45:41.089Z,78.86
2022-10-27T12:48:31.044Z,78.67
2022-10-27T12:51:33.569Z,78.57
2022-10-27T12:54:12.631Z,78.82
2022-10-27T12:56:43.536Z,78.98
2022-10-27T12:59:29.110Z,80.19
2022-10-27T13:02:03.280Z,79.89
2022-10-27T13:04:30.037Z,79.28
2022-10-27T13:07:25.209Z,79.26
2022-10-27T13:10:02.117Z,78.96
2022-10-27T13:12:48.452Z,78.98
2022-10-27T13:15:34.137Z,79.04
2022-10-27T13:18:20.949Z,79.28
2022-10-27T13:20:56.537Z,79.59
2022-10-27T13:23:32.076Z,79.67
2022-10-27T13:26:14.225Z,79.86
2022-10-27T13:28:44.198Z,79.82
2022-10-27T13:31:16.369Z,80.11
2022-10-27T13:36:27.942Z,80.44
2022-10-27T13:39:13.107Z,80.30
2022-10-27T15:41:26.481Z,84.05
2022-10-27T15:44:12.270Z,84.52
2022-10-27T15:46:39.254Z,85.51
2022-10-27T15:49:15.054Z,84.63
2022-10-27T15:51:56.539Z,84.65
2022-10-27T15:54:25.349Z,84.36
2022-10-27T15:56:53.305Z,84.91
2022-10-27T15:59:22.431Z,85.20
2022-10-27T16:01:50.698Z,85.74
2022-10-27T16:04:21.702Z,85.32
2022-10-27T16:06:48.396Z,85.46
2022-10-27T16:09:50.498Z,85.44
2022-10-27T16:12:18.442Z,85.46
2022-10-27T16:14:49.501Z,85.76
2022-10-27T16:17:21.321Z,85.88
2022-10-27T16:19:48.206Z,85.82
2022-10-27T16:22:18.796Z,86.07
2022-10-27T16:24:45.625Z,86.26
2022-10-27T16:27:17.974Z,86.24
2022-10-27T16:29:44.706Z,86.60
2022-10-27T16:32:12.938Z,86.67
2022-10-27T16:34:39.675Z,86.59
2022-10-27T16:37:14.485Z,86.62
2022-10-27T16:39:41.341Z,86.73
2022-10-27T16:42:08.891Z,86.81
2022-10-27T16:44:35.569Z,87.06
2022-10-27T16:47:07.242Z,87.32
2022-10-27T16:49:36.057Z,87.58
2022-10-27T16:52:03.141Z,87.56
2022-10-27T16:54:29.887Z,87.65
2022-10-27T16:56:56.450Z,87.75
2022-10-27T16:59:23.151Z,87.71
2022-10-27T17:01:50.550Z,87.60
2022-10-27T17:04:19.272Z,88.03
2022-10-27T17:06:46.469Z,88.85
2022-10-27T17:09:13.426Z,89.04
2022-10-27T17:11:40.099Z,89.37
2022-10-27T17:14:07.074Z,89.54
2022-10-27T17:16:33.876Z,90.05
2022-10-27T17:19:00.775Z,89.26
2022-10-27T17:21:27.694Z,89.30
2022-10-27T17:23:54.425Z,90.12
2022-10-27T17:26:21.268Z,88.85
2022-10-27T17:28:49.587Z,89.30
2022-10-27T17:31:20.901Z,89.19
2022-10-27T17:33:50.194Z,89.00
2022-10-27T17:36:16.753Z,89.41
2022-10-27T17:38:43.303Z,89.30
2022-10-27T17:41:11.060Z,88.22
2022-10-27T17:43:37.851Z,90.39
2022-10-27T17:46:07.569Z,89.25
2022-10-27T17:48:35.807Z,94.63
2022-10-27T17:51:16.244Z,91.09
2022-10-27T17:53:43.545Z,89.84
2022-10-27T17:56:11.504Z,90.65
2022-10-27T17:58:38.806Z,90.03
2022-10-27T18:01:07.358Z,90.40
2022-10-27T18:03:35.898Z,90.44
2022-10-27T18:06:03.554Z,91.14
2022-10-27T18:08:30.652Z,91.13
2022-10-27T18:11:04.476Z,90.53
2022-10-27T18:13:32.105Z,91.28
2022-10-27T18:15:59.104Z,90.98
2022-10-27T18:18:25.928Z,89.65
2022-10-27T18:20:52.522Z,90.78
2022-10-27T18:23:19.214Z,91.58
2022-10-27T18:25:45.772Z,92.17
2022-10-27T18:28:12.400Z,90.98
2022-10-27T18:30:39.202Z,90.48
2022-10-27T18:33:05.774Z,90.18
2022-10-27T18:35:33.013Z,90.76
2022-10-27T18:37:59.571Z,90.54
2022-10-27T18:40:26.157Z,91.62
2022-10-27T18:42:55.126Z,92.51
2022-10-27T18:45:25.266Z,92.89
2022-10-27T18:47:51.973Z,92.41
2022-10-27T18:50:19.030Z,94.09
2022-10-27T18:52:45.637Z,94.41
2022-10-27T18:55:12.356Z,95.62
2022-10-27T18:57:38.957Z,95.59
2022-10-27T19:00:05.904Z,95.17
2022-10-27T19:02:32.868Z,95.50
2022-10-27T19:04:59.572Z,95.76
2022-10-27T19:07:28.048Z,96.70
2022-10-27T19:09:55.004Z,93.99
2022-10-27T19:12:21.749Z,92.11
2022-10-27T19:14:48.335Z,92.37
2022-10-27T19:17:14.885Z,92.11
2022-10-27T19:19:41.842Z,93.85
2022-10-27T19:22:08.483Z,94.56
2022-10-27T19:24:35.113Z,94.58
2022-10-27T19:27:01.751Z,95.42
2022-10-27T19:29:28.382Z,95.16
2022-10-27T19:31:55.046Z,94.35
2022-10-27T19:34:21.870Z,92.48
2022-10-27T19:36:48.430Z,93.42
2022-10-27T19:39:15.093Z,95.76
2022-10-27T19:41:41.760Z,96.57
2022-10-27T19:44:08.481Z,97.44
2022-10-27T19:46:35.153Z,96.60
2022-10-27T19:49:03.194Z,96.87
2022-10-27T19:51:31.556Z,98.62
2022-10-27T19:53:58.997Z,98.35
2022-10-27T19:56:27.066Z,98.00
2022-10-27T19:58:58.138Z,98.22
2022-10-27T20:01:29.617Z,100.00
2022-10-27T20:03:56.364Z,100.00
2022-10-27T20:06:23.689Z,100.00
2022-10-27T20:08:54.972Z,100.00
2022-10-27T20:11:26.195Z,100.00
2022-10-27T20:13:55.305Z,100.00
2022-10-27T20:16:26.430Z,100.00
2022-10-27T20:18:53.293Z,100.00
2022-10-27T20:21:20.216Z,100.00
2022-10-27T20:23:46.826Z,100.00
2022-10-27T20:26:30.306Z,100.00
2022-10-27T20:28:59.935Z,100.00
2022-10-27T20:31:26.614Z,100.00
2022-10-27T20:33:53.345Z,100.00
2022-10-27T20:36:19.999Z,100.00
2022-10-27T20:38:46.676Z,100.00
2022-10-27T20:41:20.349Z,100.00
2022-10-27T20:43:47.319Z,100.00
2022-10-27T20:46:14.199Z,100.00
2022-10-27T20:48:40.994Z,100.00
2022-10-27T20:51:10.419Z,100.00
2022-10-27T20:53:37.323Z,100.00
2022-10-27T20:56:04.419Z,100.00
2022-10-27T20:58:31.030Z,100.00
2022-10-27T21:01:16.251Z,100.00
2022-10-27T21:03:42.966Z,100.00
2022-10-27T21:06:09.604Z,100.00
2022-10-27T21:08:36.197Z,100.00
2022-10-27T21:11:02.778Z,100.00
2022-10-27T21:13:29.324Z,99.66
2022-10-27T21:15:56.636Z,99.28
2022-10-27T21:18:23.220Z,99.01
2022-10-27T21:20:49.901Z,98.70
2022-10-27T21:23:16.853Z,99.02
2022-10-27T21:25:43.547Z,98.95
2022-10-27T21:28:10.586Z,99.20
2022-10-27T21:30:38.149Z,99.45
2022-10-27T21:33:04.732Z,99.67
2022-10-27T21:35:31.667Z,98.80
2022-10-27T21:37:58.245Z,98.88
2022-10-27T21:40:24.901Z,99.24
2022-10-27T21:42:51.865Z,99.28
2022-10-27T21:45:18.724Z,100.00
2022-10-27T21:47:45.343Z,100.00
2022-10-27T21:50:11.925Z,100.00
2022-10-27T21:52:38.705Z,100.00
2022-10-27T21:55:05.804Z,98.41
2022-10-27T21:57:33.188Z,97.46
2022-10-27T21:59:59.783Z,97.25
2022-10-27T22:02:26.385Z,98.99
2022-10-27T22:04:52.994Z,98.98
2022-10-27T22:07:19.534Z,98.94
2022-10-27T22:09:46.115Z,98.98
2022-10-27T22:12:12.658Z,98.09
2022-10-27T22:14:39.767Z,98.92
2022-10-27T22:17:06.430Z,99.22
2022-10-27T22:19:32.966Z,98.41
2022-10-27T22:21:59.787Z,98.23
2022-10-27T22:24:26.413Z,97.49
2022-10-27T22:26:53.053Z,99.81
2022-10-27T22:29:19.876Z,99.12
2022-10-27T22:31:46.495Z,100.00
2022-10-27T22:34:13.105Z,100.00
2022-10-27T22:36:39.733Z,100.00
2022-10-27T22:39:06.544Z,100.00
2022-10-27T22:41:33.850Z,100.00
2022-10-27T22:44:00.694Z,100.00
2022-10-27T22:46:28.795Z,100.00
2022-10-27T22:48:55.705Z,98.76
2022-10-27T22:51:23.391Z,99.21
2022-10-27T22:53:50.324Z,99.41
2022-10-27T22:56:21.415Z,100.00
2022-10-27T22:58:49.008Z,100.00
2022-10-27T23:01:18.409Z,100.00
2022-10-27T23:03:45.704Z,100.00
2022-10-27T23:06:12.233Z,100.00
2022-10-27T23:08:38.790Z,100.00
2022-10-27T23:11:06.469Z,100.00
2022-10-27T23:13:36.967Z,100.00
2022-10-27T23:16:05.036Z,100.00
2022-10-27T23:18:35.573Z,100.00
2022-10-27T23:21:03.007Z,100.00
2022-10-27T23:23:30.342Z,100.00
2022-10-27T23:25:57.145Z,100.00
2022-10-27T23:28:24.083Z,100.00
2022-10-27T23:30:50.737Z,100.00
2022-10-27T23:33:17.707Z,100.00
2022-10-27T23:35:54.176Z,100.00
2022-10-27T23:38:20.768Z,100.00
2022-10-27T23:40:51.073Z,100.00
2022-10-27T23:43:17.772Z,100.00
2022-10-27T23:45:44.369Z,100.00
2022-10-27T23:48:10.905Z,100.00
2022-10-27T23:50:37.558Z,100.00
2022-10-27T23:53:04.170Z,100.00
2022-10-27T23:55:30.695Z,100.00
2022-10-27T23:57:57.616Z,100.00
